createdAt,value
2023-05-06T00:00:00.364Z,11.6
2023-05-06T00:01:00.881Z,11.6
2023-05-06T00:02:01.613Z,11.6
2023-05-06T00:03:02.364Z,11.6
2023-05-06T00:04:03.268Z,11.6
2023-05-06T00:05:03.766Z,11.6
2023-05-06T00:06:04.292Z,11.6
2023-05-06T00:07:05.015Z,11.6
2023-05-06T00:08:05.730Z,11.6
2023-05-06T00:09:12.095Z,11.6
2023-05-06T00:10:12.633Z,11.6
2023-05-06T00:11:13.157Z,11.6
2023-05-06T00:12:13.841Z,11.6
2023-05-06T00:13:14.451Z,11.6
2023-05-06T00:14:15.094Z,11.6
2023-05-06T00:15:15.716Z,11.6
2023-05-06T00:16:16.255Z,11.6
2023-05-06T00:17:16.974Z,11.6
2023-05-06T00:18:17.576Z,11.6
2023-05-06T00:19:18.194Z,11.6
2023-05-06T00:20:18.845Z,11.6
2023-05-06T00:21:19.328Z,11.6
2023-05-06T00:22:19.884Z,11.6
2023-05-06T00:23:20.424Z,11.6
2023-05-06T00:24:20.976Z,11.6
2023-05-06T00:25:21.502Z,11.6
2023-05-06T00:26:22.061Z,11.6
2023-05-06T00:27:22.577Z,11.6
2023-05-06T00:28:23.098Z,11.6
2023-05-06T00:29:23.646Z,11.6
2023-05-06T00:30:24.314Z,11.6
2023-05-06T00:31:24.839Z,11.5
2023-05-06T00:32:25.591Z,11.5
2023-05-06T00:33:26.178Z,11.5
2023-05-06T00:34:32.550Z,11.5
2023-05-06T00:35:33.172Z,11.5
2023-05-06T00:36:33.630Z,11.5
2023-05-06T00:37:34.149Z,11.5
2023-05-06T00:38:34.915Z,11.5
2023-05-06T00:39:35.446Z,11.5
2023-05-06T00:40:35.980Z,11.5
2023-05-06T00:41:36.524Z,11.5
2023-05-06T00:42:37.191Z,11.5
2023-05-06T00:43:37.720Z,11.5
2023-05-06T00:44:38.246Z,11.5
2023-05-06T00:45:38.802Z,11.5
2023-05-06T00:46:39.302Z,11.5
2023-05-06T00:47:39.894Z,11.5
2023-05-06T00:48:40.421Z,11.5
2023-05-06T00:49:41.137Z,11.5
2023-05-06T00:50:42.508Z,11.4
2023-05-06T00:51:43.107Z,11.4
2023-05-06T00:52:43.821Z,11.4
2023-05-06T00:53:44.369Z,11.4
2023-05-06T00:54:45.051Z,11.4
2023-05-06T00:55:45.574Z,11.4
2023-05-06T00:56:52.239Z,11.4
2023-05-06T00:57:52.776Z,11.4
2023-05-06T00:58:53.383Z,11.4
2023-05-06T00:59:53.914Z,11.4
2023-05-06T01:00:54.631Z,11.4
2023-05-06T01:01:55.340Z,11.4
2023-05-06T01:02:56.024Z,11.4
2023-05-06T01:03:56.556Z,11.4
2023-05-06T01:04:57.263Z,11.4
2023-05-06T01:05:58.044Z,11.4
2023-05-06T01:06:58.652Z,11.4
2023-05-06T01:07:59.178Z,11.4
2023-05-06T01:08:59.714Z,11.4
2023-05-06T01:10:00.320Z,11.4
2023-05-06T01:11:00.855Z,11.2
2023-05-06T01:12:01.455Z,11.2
2023-05-06T01:13:02.061Z,11.2
2023-05-06T01:14:02.694Z,11.2
2023-05-06T01:15:03.422Z,11.2
2023-05-06T01:16:03.966Z,11.2
2023-05-06T01:17:04.700Z,11.2
2023-05-06T01:18:05.282Z,11.2
2023-05-06T01:19:11.627Z,11.2
2023-05-06T01:20:12.273Z,11.2
2023-05-06T01:21:12.914Z,11.2
2023-05-06T01:22:13.347Z,11.2
2023-05-06T01:23:14.034Z,11.2
2023-05-06T01:24:14.574Z,11.2
2023-05-06T01:25:15.107Z,11.2
2023-05-06T01:26:15.685Z,11.2
2023-05-06T01:27:16.406Z,11.2
2023-05-06T01:28:16.948Z,11.2
2023-05-06T01:29:17.647Z,11.2
2023-05-06T01:30:18.397Z,11.2
2023-05-06T01:31:19.073Z,11
2023-05-06T01:32:19.625Z,11
2023-05-06T01:33:20.094Z,11
2023-05-06T01:34:20.864Z,11
2023-05-06T01:35:21.404Z,11
2023-05-06T01:36:22.026Z,11
2023-05-06T01:37:22.621Z,11
2023-05-06T01:38:23.177Z,11
2023-05-06T01:39:23.862Z,11
2023-05-06T01:40:24.409Z,11
2023-05-06T01:41:30.931Z,11
2023-05-06T01:42:31.477Z,11
2023-05-06T01:43:32.231Z,11
2023-05-06T01:44:32.899Z,11
2023-05-06T01:45:33.637Z,11
2023-05-06T01:46:34.462Z,11
2023-05-06T01:47:35.030Z,11
2023-05-06T01:48:35.525Z,11
2023-05-06T01:49:36.212Z,11
2023-05-06T01:50:36.755Z,11
2023-05-06T01:51:37.558Z,10.7
2023-05-06T01:52:38.096Z,10.7
2023-05-06T01:53:38.623Z,10.7
2023-05-06T01:54:39.218Z,10.7
2023-05-06T01:55:39.843Z,10.7
2023-05-06T01:56:40.379Z,10.7
2023-05-06T01:57:40.982Z,10.7
2023-05-06T01:58:41.618Z,10.7
2023-05-06T01:59:42.140Z,10.7
2023-05-06T02:00:42.854Z,10.7
2023-05-06T02:01:43.587Z,10.7
2023-05-06T02:02:44.148Z,10.7
2023-05-06T02:03:50.594Z,10.7
2023-05-06T02:04:51.267Z,10.7
2023-05-06T02:05:52.011Z,10.7
2023-05-06T02:06:52.686Z,10.7
2023-05-06T02:07:53.057Z,10.7
2023-05-06T02:08:53.752Z,10.7
2023-05-06T02:09:54.387Z,10.7
2023-05-06T02:10:55.102Z,10.3
2023-05-06T02:11:55.832Z,10.3
2023-05-06T02:12:56.377Z,10.3
2023-05-06T02:13:56.869Z,10.3
2023-05-06T02:14:57.409Z,10.3
2023-05-06T02:15:58.121Z,10.3
2023-05-06T02:16:58.733Z,10.3
2023-05-06T02:17:59.310Z,10.3
2023-05-06T02:18:59.832Z,10.3
2023-05-06T02:20:00.587Z,10.3
2023-05-06T02:21:01.304Z,10.3
2023-05-06T02:22:01.861Z,10.3
2023-05-06T02:23:02.324Z,10.3
2023-05-06T02:24:02.861Z,10.3
2023-05-06T02:25:03.586Z,10.3
2023-05-06T02:26:10.054Z,10.3
2023-05-06T02:27:10.767Z,10.3
2023-05-06T02:28:11.276Z,10.3
2023-05-06T02:29:12.020Z,10.3
2023-05-06T02:30:12.567Z,10.3
2023-05-06T02:31:13.295Z,10
2023-05-06T02:32:13.787Z,10
2023-05-06T02:33:14.323Z,10
2023-05-06T02:34:14.862Z,10
2023-05-06T02:35:15.445Z,10
2023-05-06T02:36:15.963Z,10
2023-05-06T02:37:16.744Z,10
2023-05-06T02:38:16.983Z,10
2023-05-06T02:39:17.507Z,10
2023-05-06T02:40:18.274Z,10
2023-05-06T02:41:18.769Z,10
2023-05-06T02:42:19.494Z,10
2023-05-06T02:43:20.190Z,10
2023-05-06T02:44:20.735Z,10
2023-05-06T02:45:21.443Z,10
2023-05-06T02:46:22.079Z,10
2023-05-06T02:47:22.542Z,10
2023-05-06T02:48:23.056Z,10
2023-05-06T02:49:23.587Z,10
2023-05-06T02:50:24.105Z,10
2023-05-06T02:51:30.801Z,10.2
2023-05-06T02:52:31.542Z,10.2
2023-05-06T02:53:32.035Z,10.2
2023-05-06T02:54:32.776Z,10.2
2023-05-06T02:55:33.488Z,10.2
2023-05-06T02:56:34.100Z,10.2
2023-05-06T02:57:34.597Z,10.2
2023-05-06T02:58:35.251Z,10.2
2023-05-06T02:59:35.799Z,10.2
2023-05-06T03:00:36.321Z,10.2
2023-05-06T03:01:37.094Z,10.2
2023-05-06T03:02:37.546Z,10.2
2023-05-06T03:03:38.077Z,10.2
2023-05-06T03:04:38.643Z,10.2
2023-05-06T03:05:39.281Z,10.2
2023-05-06T03:06:39.907Z,10.2
2023-05-06T03:07:40.545Z,10.2
2023-05-06T03:08:40.974Z,10.2
2023-05-06T03:09:41.671Z,10.2
2023-05-06T03:10:42.291Z,10.2
2023-05-06T03:11:42.820Z,9.8
2023-05-06T03:12:43.413Z,9.8
2023-05-06T03:13:50.200Z,9.8
2023-05-06T03:14:50.739Z,9.8
2023-05-06T03:15:51.341Z,9.8
2023-05-06T03:16:51.868Z,9.8
2023-05-06T03:17:52.500Z,9.8
2023-05-06T03:18:53.022Z,9.8
2023-05-06T03:19:53.565Z,9.8
2023-05-06T03:20:54.101Z,9.8
2023-05-06T03:21:54.665Z,9.8
2023-05-06T03:22:55.289Z,9.8
2023-05-06T03:23:55.893Z,9.8
2023-05-06T03:24:56.615Z,9.8
2023-05-06T03:25:57.247Z,9.8
2023-05-06T03:26:57.772Z,9.8
2023-05-06T03:27:58.297Z,9.8
2023-05-06T03:28:58.849Z,9.8
2023-05-06T03:29:59.382Z,9.8
2023-05-06T03:30:59.950Z,9.6
2023-05-06T03:32:00.698Z,9.6
2023-05-06T03:33:01.221Z,9.6
2023-05-06T03:34:01.823Z,9.6
2023-05-06T03:35:02.535Z,9.6
2023-05-06T03:36:09.411Z,9.6
2023-05-06T03:37:09.933Z,9.6
2023-05-06T03:38:10.556Z,9.6
2023-05-06T03:39:11.151Z,9.6
2023-05-06T03:40:11.681Z,9.6
2023-05-06T03:41:12.221Z,9.6
2023-05-06T03:42:12.928Z,9.6
2023-05-06T03:43:13.430Z,9.6
2023-05-06T03:44:14.056Z,9.6
2023-05-06T03:45:14.576Z,9.6
2023-05-06T03:46:15.160Z,9.6
2023-05-06T03:47:15.657Z,9.6
2023-05-06T03:48:16.196Z,9.6
2023-05-06T03:49:16.791Z,9.6
2023-05-06T03:50:17.476Z,9.6
2023-05-06T03:51:18.021Z,9.5
2023-05-06T03:52:18.618Z,9.5
2023-05-06T03:53:19.433Z,9.5
2023-05-06T03:54:20.065Z,9.5
2023-05-06T03:55:20.699Z,9.5
2023-05-06T03:56:21.212Z,9.5
2023-05-06T03:57:21.728Z,9.5
2023-05-06T03:58:28.489Z,9.5
2023-05-06T03:59:29.101Z,9.5
2023-05-06T04:00:29.660Z,9.5
2023-05-06T04:01:30.339Z,9.5
2023-05-06T04:02:31.096Z,9.5
2023-05-06T04:03:31.772Z,9.5
2023-05-06T04:04:32.227Z,9.5
2023-05-06T04:05:32.937Z,9.5
2023-05-06T04:06:33.451Z,9.5
2023-05-06T04:07:34.040Z,9.5
2023-05-06T04:08:34.552Z,9.5
2023-05-06T04:09:35.072Z,9.5
2023-05-06T04:10:35.735Z,9.5
2023-05-06T04:11:36.357Z,9.2
2023-05-06T04:12:36.902Z,9.2
2023-05-06T04:13:37.496Z,9.2
2023-05-06T04:14:38.026Z,9.2
2023-05-06T04:15:38.735Z,9.2
2023-05-06T04:16:39.372Z,9.2
2023-05-06T04:17:39.890Z,9.2
2023-05-06T04:18:40.483Z,9.2
2023-05-06T04:19:41.222Z,9.2
2023-05-06T04:20:47.615Z,9.2
2023-05-06T04:21:48.294Z,9.2
2023-05-06T04:22:48.810Z,9.2
2023-05-06T04:23:49.640Z,9.2
2023-05-06T04:24:50.057Z,9.2
2023-05-06T04:25:50.679Z,9.2
2023-05-06T04:26:51.210Z,9.2
2023-05-06T04:27:51.725Z,9.2
2023-05-06T04:28:52.454Z,9.2
2023-05-06T04:29:53.162Z,9.2
2023-05-06T04:30:53.804Z,9.1
2023-05-06T04:31:54.550Z,9.1
2023-05-06T04:32:55.247Z,9.1
2023-05-06T04:33:55.962Z,9.1
2023-05-06T04:34:56.502Z,9.1
2023-05-06T04:35:57.102Z,9.1
2023-05-06T04:36:57.614Z,9.1
2023-05-06T04:37:58.336Z,9.1
2023-05-06T04:38:58.987Z,9.1
2023-05-06T04:39:59.489Z,9.1
2023-05-06T04:41:00.044Z,9.1
2023-05-06T04:42:00.591Z,9.1
2023-05-06T04:43:07.390Z,9.1
2023-05-06T04:44:08.113Z,9.1
2023-05-06T04:45:08.970Z,9.1
2023-05-06T04:46:09.489Z,9.1
2023-05-06T04:47:10.082Z,9.1
2023-05-06T04:48:10.613Z,9.1
2023-05-06T04:49:12.496Z,9.1
2023-05-06T04:50:11.879Z,9.1
2023-05-06T04:51:12.577Z,9.7
2023-05-06T04:52:13.121Z,9.7
2023-05-06T04:53:13.703Z,9.7
2023-05-06T04:54:14.356Z,9.7
2023-05-06T04:55:14.962Z,9.7
2023-05-06T04:56:15.576Z,9.7
2023-05-06T04:57:16.196Z,9.7
2023-05-06T04:58:16.913Z,9.7
2023-05-06T04:59:17.639Z,9.7
2023-05-06T05:00:18.182Z,9.7
2023-05-06T05:01:18.716Z,9.7
2023-05-06T05:02:19.271Z,9.7
2023-05-06T05:03:19.957Z,9.7
2023-05-06T05:04:20.533Z,9.7
2023-05-06T05:05:27.008Z,9.7
2023-05-06T05:06:27.539Z,9.7
2023-05-06T05:07:28.236Z,9.7
2023-05-06T05:08:28.854Z,9.7
2023-05-06T05:09:29.676Z,9.7
2023-05-06T05:10:30.215Z,9.7
2023-05-06T05:11:30.829Z,10
2023-05-06T05:12:31.358Z,10
2023-05-06T05:13:31.866Z,10
2023-05-06T05:14:32.371Z,10
2023-05-06T05:15:32.879Z,10
2023-05-06T05:16:33.431Z,10
2023-05-06T05:17:33.962Z,10
2023-05-06T05:18:34.662Z,10
2023-05-06T05:19:35.384Z,10
2023-05-06T05:20:36.009Z,10
2023-05-06T05:21:36.724Z,10
2023-05-06T05:22:37.445Z,10
2023-05-06T05:23:38.173Z,10
2023-05-06T05:24:38.925Z,10
2023-05-06T05:25:39.413Z,10
2023-05-06T05:26:40.043Z,10
2023-05-06T05:27:46.697Z,10
2023-05-06T05:28:47.325Z,10
2023-05-06T05:29:47.939Z,10
2023-05-06T05:30:48.705Z,10
2023-05-06T05:31:49.299Z,10.9
2023-05-06T05:32:49.889Z,10.9
2023-05-06T05:33:50.426Z,10.9
2023-05-06T05:34:50.971Z,10.9
2023-05-06T05:35:51.507Z,10.9
2023-05-06T05:36:52.055Z,10.9
2023-05-06T05:37:52.820Z,10.9
2023-05-06T05:38:53.343Z,10.9
2023-05-06T05:39:53.957Z,10.9
2023-05-06T05:40:54.387Z,10.9
2023-05-06T05:41:54.944Z,10.9
2023-05-06T05:42:55.488Z,10.9
2023-05-06T05:43:56.027Z,10.9
2023-05-06T05:44:56.537Z,10.9
2023-05-06T05:45:57.103Z,10.9
2023-05-06T05:46:57.611Z,10.9
2023-05-06T05:47:58.203Z,10.9
2023-05-06T05:48:58.921Z,10.9
2023-05-06T05:49:59.418Z,10.9
2023-05-06T05:50:59.966Z,11.1
2023-05-06T05:52:00.526Z,11.1
2023-05-06T05:53:07.236Z,11.1
2023-05-06T05:54:07.762Z,11.1
2023-05-06T05:55:08.629Z,11.1
2023-05-06T05:56:09.026Z,11.1
2023-05-06T05:57:09.559Z,11.1
2023-05-06T05:58:10.113Z,11.1
2023-05-06T05:59:10.761Z,11.1
2023-05-06T06:00:13.434Z,11.1
2023-05-06T06:01:12.210Z,11.1
2023-05-06T06:02:12.932Z,11.1
2023-05-06T06:03:13.624Z,11.1
2023-05-06T06:04:14.084Z,11.1
2023-05-06T06:05:14.629Z,11.1
2023-05-06T06:06:15.142Z,11.1
2023-05-06T06:07:15.678Z,11.1
2023-05-06T06:08:16.271Z,11.1
2023-05-06T06:09:16.803Z,11.1
2023-05-06T06:10:17.750Z,11.1
2023-05-06T06:11:18.121Z,12
2023-05-06T06:12:18.843Z,12
2023-05-06T06:13:19.519Z,12
2023-05-06T06:14:20.009Z,12
2023-05-06T06:15:26.533Z,12
2023-05-06T06:16:27.093Z,12
2023-05-06T06:17:27.797Z,12
2023-05-06T06:18:28.410Z,12
2023-05-06T06:19:29.129Z,12
2023-05-06T06:20:29.880Z,12
2023-05-06T06:21:30.415Z,12
2023-05-06T06:22:31.089Z,12
2023-05-06T06:23:31.616Z,12
2023-05-06T06:24:32.149Z,12
2023-05-06T06:25:32.881Z,12
2023-05-06T06:26:33.195Z,12
2023-05-06T06:27:33.721Z,12
2023-05-06T06:28:34.235Z,12
2023-05-06T06:29:34.764Z,12
2023-05-06T06:30:35.280Z,12
2023-05-06T06:31:37.069Z,12.5
2023-05-06T06:32:36.496Z,12.5
2023-05-06T06:33:37.106Z,12.5
2023-05-06T06:34:37.832Z,12.5
2023-05-06T06:35:38.388Z,12.5
2023-05-06T06:36:39.070Z,12.5
2023-05-06T06:37:45.745Z,12.5
2023-05-06T06:38:46.467Z,12.5
2023-05-06T06:39:46.975Z,12.5
2023-05-06T06:40:47.657Z,12.5
2023-05-06T06:41:48.116Z,12.5
2023-05-06T06:42:48.663Z,12.5
2023-05-06T06:43:49.359Z,12.5
2023-05-06T06:44:49.884Z,12.5
2023-05-06T06:45:50.423Z,12.5
2023-05-06T06:46:51.031Z,12.5
2023-05-06T06:47:51.821Z,12.5
2023-05-06T06:48:52.467Z,12.5
2023-05-06T06:49:53.182Z,12.5
2023-05-06T06:50:54.521Z,13.5
2023-05-06T06:51:55.059Z,13.5
2023-05-06T06:52:55.594Z,13.5
2023-05-06T06:53:56.299Z,13.5
2023-05-06T06:54:56.814Z,13.5
2023-05-06T06:55:57.430Z,13.5
2023-05-06T06:57:03.993Z,13.5
2023-05-06T06:58:04.658Z,13.5
2023-05-06T06:59:05.337Z,13.5
2023-05-06T07:00:06.054Z,13.5
2023-05-06T07:01:06.619Z,13.5
2023-05-06T07:02:07.219Z,13.5
2023-05-06T07:03:07.807Z,13.5
2023-05-06T07:04:08.336Z,13.5
2023-05-06T07:05:08.981Z,13.5
2023-05-06T07:06:09.387Z,13.5
2023-05-06T07:07:10.000Z,13.5
2023-05-06T07:08:10.578Z,13.5
2023-05-06T07:09:11.245Z,13.5
2023-05-06T07:10:11.774Z,13.5
2023-05-06T07:11:12.445Z,14.1
2023-05-06T07:12:12.837Z,14.1
2023-05-06T07:13:13.390Z,14.1
2023-05-06T07:14:13.907Z,14.1
2023-05-06T07:15:14.417Z,14.1
2023-05-06T07:16:15.076Z,14.1
2023-05-06T07:17:15.806Z,14.1
2023-05-06T07:18:16.564Z,14.1
2023-05-06T07:19:23.289Z,14.1
2023-05-06T07:20:23.909Z,14.1
2023-05-06T07:21:24.433Z,14.1
2023-05-06T07:22:24.959Z,14.1
2023-05-06T07:23:25.660Z,14.1
2023-05-06T07:24:26.290Z,14.1
2023-05-06T07:25:26.905Z,14.1
2023-05-06T07:26:27.638Z,14.1
2023-05-06T07:27:27.981Z,14.1
2023-05-06T07:28:28.523Z,14.1
2023-05-06T07:29:29.029Z,14.1
2023-05-06T07:30:29.549Z,14.1
2023-05-06T07:31:30.308Z,14.7
2023-05-06T07:32:30.812Z,14.7
2023-05-06T07:33:31.369Z,14.7
2023-05-06T07:34:31.908Z,14.7
2023-05-06T07:35:32.456Z,14.7
2023-05-06T07:36:32.977Z,14.7
2023-05-06T07:37:33.489Z,14.7
2023-05-06T07:38:34.027Z,14.7
2023-05-06T07:39:34.674Z,14.7
2023-05-06T07:40:35.401Z,14.7
2023-05-06T07:41:36.213Z,14.7
2023-05-06T07:42:36.745Z,14.7
2023-05-06T07:43:37.286Z,14.7
2023-05-06T07:44:43.761Z,14.7
2023-05-06T07:45:44.448Z,14.7
2023-05-06T07:46:45.069Z,14.7
2023-05-06T07:47:45.693Z,14.7
2023-05-06T07:48:46.222Z,14.7
2023-05-06T07:49:46.932Z,14.7
2023-05-06T07:50:47.476Z,14.7
2023-05-06T07:51:48.088Z,15.2
2023-05-06T07:52:48.698Z,15.2
2023-05-06T07:53:49.430Z,15.2
2023-05-06T07:54:50.147Z,15.2
2023-05-06T07:55:50.867Z,15.2
2023-05-06T07:56:51.689Z,15.2
2023-05-06T07:57:52.117Z,15.2
2023-05-06T07:58:52.740Z,15.2
2023-05-06T07:59:53.463Z,15.2
2023-05-06T08:00:53.989Z,15.2
2023-05-06T08:01:54.602Z,15.2
2023-05-06T08:02:55.303Z,15.2
2023-05-06T08:03:55.848Z,15.2
2023-05-06T08:04:56.474Z,15.2
2023-05-06T08:05:56.984Z,15.2
2023-05-06T08:07:03.635Z,15.2
2023-05-06T08:08:04.362Z,15.2
2023-05-06T08:09:04.905Z,15.2
2023-05-06T08:10:05.520Z,15.2
2023-05-06T08:11:06.227Z,15.7
2023-05-06T08:12:06.884Z,15.7
2023-05-06T08:13:07.320Z,15.7
2023-05-06T08:14:07.837Z,15.7
2023-05-06T08:15:08.420Z,15.7
2023-05-06T08:16:08.951Z,15.7
2023-05-06T08:17:09.476Z,15.7
2023-05-06T08:18:21.458Z,15.7
2023-05-06T08:19:10.601Z,15.7
2023-05-06T08:20:11.129Z,15.7
2023-05-06T08:21:11.666Z,15.7
2023-05-06T08:22:12.196Z,15.7
2023-05-06T08:23:12.736Z,15.7
2023-05-06T08:24:13.379Z,15.7
2023-05-06T08:25:14.103Z,15.7
2023-05-06T08:26:14.619Z,15.7
2023-05-06T08:27:15.286Z,15.7
2023-05-06T08:28:15.790Z,15.7
2023-05-06T08:29:16.504Z,15.7
2023-05-06T08:30:17.047Z,15.7
2023-05-06T08:31:17.630Z,16.1
2023-05-06T08:32:24.349Z,16.1
2023-05-06T08:33:25.013Z,16.1
2023-05-06T08:34:25.556Z,16.1
2023-05-06T08:35:26.094Z,16.1
2023-05-06T08:36:26.789Z,16.1
2023-05-06T08:37:27.499Z,16.1
2023-05-06T08:38:28.229Z,16.1
2023-05-06T08:39:28.860Z,16.1
2023-05-06T08:40:29.577Z,16.1
2023-05-06T08:41:30.122Z,16.1
2023-05-06T08:42:30.907Z,16.1
2023-05-06T08:43:31.550Z,16.1
2023-05-06T08:44:32.074Z,16.1
2023-05-06T08:45:32.609Z,16.1
2023-05-06T08:46:33.300Z,16.1
2023-05-06T08:47:33.819Z,16.1
2023-05-06T08:48:34.536Z,16.1
2023-05-06T08:49:35.057Z,16.1
2023-05-06T08:50:35.673Z,16.1
2023-05-06T08:51:36.188Z,17.9
2023-05-06T08:52:36.925Z,17.9
2023-05-06T08:53:37.455Z,17.9
2023-05-06T08:54:43.900Z,17.9
2023-05-06T08:55:44.422Z,17.9
2023-05-06T08:56:44.968Z,17.9
2023-05-06T08:57:45.577Z,17.9
2023-05-06T08:58:46.079Z,17.9
2023-05-06T08:59:46.603Z,17.9
2023-05-06T09:00:47.156Z,17.9
2023-05-06T09:01:47.742Z,17.9
2023-05-06T09:02:48.319Z,17.9
2023-05-06T09:03:49.034Z,17.9
2023-05-06T09:04:49.607Z,17.9
2023-05-06T09:05:50.217Z,17.9
2023-05-06T09:06:50.832Z,17.9
2023-05-06T09:07:51.577Z,17.9
2023-05-06T09:08:52.090Z,17.9
2023-05-06T09:09:52.712Z,17.9
2023-05-06T09:10:53.274Z,17.9
2023-05-06T09:11:53.775Z,17.8
2023-05-06T09:12:54.316Z,17.8
2023-05-06T09:13:54.982Z,17.8
2023-05-06T09:14:55.525Z,17.8
2023-05-06T09:15:56.056Z,17.8
2023-05-06T09:16:56.928Z,17.8
2023-05-06T09:17:57.418Z,17.8
2023-05-06T09:18:57.934Z,17.8
2023-05-06T09:20:04.758Z,17.8
2023-05-06T09:21:05.286Z,17.8
2023-05-06T09:22:05.890Z,17.8
2023-05-06T09:23:06.528Z,17.8
2023-05-06T09:24:07.042Z,17.8
2023-05-06T09:25:07.819Z,17.8
2023-05-06T09:26:08.484Z,17.8
2023-05-06T09:27:10.483Z,17.8
2023-05-06T09:28:09.825Z,17.8
2023-05-06T09:29:10.268Z,17.8
2023-05-06T09:30:10.801Z,17.8
2023-05-06T09:31:11.364Z,18.3
2023-05-06T09:32:12.003Z,18.3
2023-05-06T09:33:12.633Z,18.3
2023-05-06T09:34:13.090Z,18.3
2023-05-06T09:35:13.817Z,18.3
2023-05-06T09:36:14.190Z,18.3
2023-05-06T09:37:14.738Z,18.3
2023-05-06T09:38:15.425Z,18.3
2023-05-06T09:39:16.050Z,18.3
2023-05-06T09:40:16.660Z,18.3
2023-05-06T09:41:17.212Z,18.3
2023-05-06T09:42:23.952Z,18.3
2023-05-06T09:43:24.671Z,18.3
2023-05-06T09:44:25.098Z,18.3
2023-05-06T09:45:25.612Z,18.3
2023-05-06T09:46:26.150Z,18.3
2023-05-06T09:47:26.832Z,18.3
2023-05-06T09:48:27.275Z,18.3
2023-05-06T09:49:27.989Z,18.3
2023-05-06T09:50:28.540Z,18.3
2023-05-06T09:51:29.127Z,19
2023-05-06T09:52:29.858Z,19
2023-05-06T09:53:30.439Z,19
2023-05-06T09:54:31.003Z,19
2023-05-06T09:55:31.535Z,19
2023-05-06T09:56:32.232Z,19
2023-05-06T09:57:32.776Z,19
2023-05-06T09:58:33.428Z,19
2023-05-06T09:59:33.999Z,19
2023-05-06T10:00:34.537Z,19
2023-05-06T10:01:37.072Z,19
2023-05-06T10:02:35.947Z,19
2023-05-06T10:03:36.511Z,19
2023-05-06T10:04:43.269Z,19
2023-05-06T10:05:43.774Z,19
2023-05-06T10:06:44.492Z,19
2023-05-06T10:07:44.995Z,19
2023-05-06T10:08:45.499Z,19
2023-05-06T10:09:46.121Z,19
2023-05-06T10:10:46.765Z,19
2023-05-06T10:11:47.488Z,19.4
2023-05-06T10:12:48.235Z,19.4
2023-05-06T10:13:48.922Z,19.4
2023-05-06T10:14:49.295Z,19.4
2023-05-06T10:15:49.897Z,19.4
2023-05-06T10:16:50.418Z,19.4
2023-05-06T10:17:50.979Z,19.4
2023-05-06T10:18:51.536Z,19.4
2023-05-06T10:19:52.040Z,19.4
2023-05-06T10:20:52.777Z,19.4
2023-05-06T10:21:53.299Z,19.4
2023-05-06T10:22:53.945Z,19.4
2023-05-06T10:23:54.652Z,19.4
2023-05-06T10:24:55.154Z,19.4
2023-05-06T10:25:55.684Z,19.4
2023-05-06T10:27:02.325Z,19.4
2023-05-06T10:28:03.816Z,19.4
2023-05-06T10:29:03.453Z,19.4
2023-05-06T10:30:04.002Z,19.4
2023-05-06T10:31:04.515Z,19.4
2023-05-06T10:32:05.276Z,19.4
2023-05-06T10:33:05.845Z,19.4
2023-05-06T10:34:06.476Z,19.4
2023-05-06T10:35:07.203Z,19.4
2023-05-06T10:36:07.888Z,19.4
2023-05-06T10:37:08.350Z,19.4
2023-05-06T10:38:08.863Z,19.4
2023-05-06T10:39:09.580Z,19.4
2023-05-06T10:40:10.128Z,19.4
2023-05-06T10:41:10.683Z,19.4
2023-05-06T10:42:11.341Z,19.4
2023-05-06T10:43:11.981Z,19.4
2023-05-06T10:44:12.517Z,19.4
2023-05-06T10:45:13.201Z,19.4
2023-05-06T10:46:13.853Z,19.4
2023-05-06T10:47:14.368Z,19.4
2023-05-06T10:48:14.909Z,19.4
2023-05-06T10:49:21.530Z,19.4
2023-05-06T10:50:22.245Z,19.4
2023-05-06T10:51:22.976Z,19.9
2023-05-06T10:52:23.494Z,19.9
2023-05-06T10:53:24.107Z,19.9
2023-05-06T10:54:24.658Z,19.9
2023-05-06T10:55:25.265Z,19.9
2023-05-06T10:56:25.833Z,19.9
2023-05-06T10:57:26.341Z,19.9
2023-05-06T10:58:26.854Z,19.9
2023-05-06T10:59:27.646Z,19.9
2023-05-06T11:00:28.095Z,19.9
2023-05-06T11:01:28.706Z,19.9
2023-05-06T11:02:29.369Z,19.9
2023-05-06T11:03:29.947Z,19.9
2023-05-06T11:04:30.385Z,19.9
2023-05-06T11:05:30.954Z,19.9
2023-05-06T11:06:31.483Z,19.9
2023-05-06T11:07:32.039Z,19.9
2023-05-06T11:08:32.818Z,19.9
2023-05-06T11:09:33.342Z,19.9
2023-05-06T11:10:34.068Z,19.9
2023-05-06T11:11:40.758Z,20.4
2023-05-06T11:12:41.378Z,20.4
2023-05-06T11:13:42.062Z,20.4
2023-05-06T11:14:42.611Z,20.4
2023-05-06T11:15:43.117Z,20.4
2023-05-06T11:16:43.686Z,20.4
2023-05-06T11:17:44.185Z,20.4
2023-05-06T11:18:44.739Z,20.4
2023-05-06T11:19:45.235Z,20.4
2023-05-06T11:20:45.795Z,20.4
2023-05-06T11:21:47.011Z,20.4
2023-05-06T11:22:47.147Z,20.4
2023-05-06T11:23:47.877Z,20.4
2023-05-06T11:24:48.394Z,20.4
2023-05-06T11:25:48.921Z,20.4
2023-05-06T11:26:49.491Z,20.4
2023-05-06T11:27:50.891Z,20.4
2023-05-06T11:28:50.594Z,20.4
2023-05-06T11:29:51.179Z,20.4
2023-05-06T11:30:51.815Z,20.4
2023-05-06T11:31:52.335Z,20.7
2023-05-06T11:32:52.845Z,20.7
2023-05-06T11:33:53.570Z,20.7
2023-05-06T11:34:54.100Z,20.7
2023-05-06T11:35:54.637Z,20.7
2023-05-06T11:37:01.298Z,20.7
2023-05-06T11:38:01.919Z,20.7
2023-05-06T11:39:04.129Z,20.7
2023-05-06T11:40:02.925Z,20.7
2023-05-06T11:41:03.484Z,20.7
2023-05-06T11:42:03.997Z,20.7
2023-05-06T11:43:04.523Z,20.7
2023-05-06T11:44:05.060Z,20.7
2023-05-06T11:45:05.676Z,20.7
2023-05-06T11:46:06.141Z,20.7
2023-05-06T11:47:06.624Z,20.7
2023-05-06T11:48:07.173Z,20.7
2023-05-06T11:49:07.798Z,20.7
2023-05-06T11:50:08.334Z,20.7
2023-05-06T11:51:08.839Z,20.9
2023-05-06T11:52:09.336Z,20.9
2023-05-06T11:53:09.863Z,20.9
2023-05-06T11:54:10.611Z,20.9
2023-05-06T11:55:11.149Z,20.9
2023-05-06T11:56:11.842Z,20.9
2023-05-06T11:57:12.560Z,20.9
2023-05-06T11:58:13.093Z,20.9
2023-05-06T11:59:13.616Z,20.9
2023-05-06T12:00:14.339Z,20.9
2023-05-06T12:01:14.747Z,20.9
2023-05-06T12:02:21.330Z,20.9
2023-05-06T12:03:22.096Z,20.9
2023-05-06T12:04:22.570Z,20.9
2023-05-06T12:05:23.077Z,20.9
2023-05-06T12:06:24.538Z,20.9
2023-05-06T12:07:24.129Z,20.9
2023-05-06T12:08:27.721Z,20.9
2023-05-06T12:09:25.233Z,20.9
2023-05-06T12:10:25.762Z,20.9
2023-05-06T12:11:26.287Z,20.6
2023-05-06T12:12:26.995Z,20.6
2023-05-06T12:13:27.521Z,20.6
2023-05-06T12:14:28.088Z,20.6
2023-05-06T12:15:28.714Z,20.6
2023-05-06T12:16:29.214Z,20.6
2023-05-06T12:17:29.727Z,20.6
2023-05-06T12:18:30.224Z,20.6
2023-05-06T12:19:30.754Z,20.6
2023-05-06T12:20:31.286Z,20.6
2023-05-06T12:21:31.808Z,20.6
2023-05-06T12:22:32.346Z,20.6
2023-05-06T12:23:32.877Z,20.6
2023-05-06T12:24:33.538Z,20.6
2023-05-06T12:25:34.076Z,20.6
2023-05-06T12:26:34.600Z,20.6
2023-05-06T12:27:35.307Z,20.6
2023-05-06T12:28:35.927Z,20.6
2023-05-06T12:29:36.639Z,20.6
2023-05-06T12:30:43.237Z,20.6
2023-05-06T12:31:43.775Z,20.3
2023-05-06T12:32:44.314Z,20.3
2023-05-06T12:33:44.802Z,20.3
2023-05-06T12:34:45.338Z,20.3
2023-05-06T12:35:45.840Z,20.3
2023-05-06T12:36:46.369Z,20.3
2023-05-06T12:37:46.876Z,20.3
2023-05-06T12:38:47.395Z,20.3
2023-05-06T12:39:47.924Z,20.3
2023-05-06T12:40:48.590Z,20.3
2023-05-06T12:41:49.316Z,20.3
2023-05-06T12:42:50.048Z,20.3
2023-05-06T12:43:50.604Z,20.3
2023-05-06T12:44:51.126Z,20.3
2023-05-06T12:45:51.753Z,20.3
2023-05-06T12:46:52.239Z,20.3
2023-05-06T12:47:52.807Z,20.3
2023-05-06T12:48:53.271Z,20.3
2023-05-06T12:49:53.817Z,20.3
2023-05-06T12:50:54.330Z,20.3
2023-05-06T12:51:55.019Z,20.5
2023-05-06T12:52:55.741Z,20.5
2023-05-06T12:53:56.275Z,20.5
2023-05-06T12:54:56.788Z,20.5
2023-05-06T12:56:03.442Z,20.5
2023-05-06T12:57:03.973Z,20.5
2023-05-06T12:58:04.511Z,20.5
2023-05-06T12:59:05.049Z,20.5
2023-05-06T13:00:05.592Z,20.5
2023-05-06T13:01:06.380Z,20.5
2023-05-06T13:02:06.880Z,20.5
2023-05-06T13:03:07.433Z,20.5
2023-05-06T13:04:07.874Z,20.5
2023-05-06T13:05:08.522Z,20.5
2023-05-06T13:06:09.142Z,20.5
2023-05-06T13:07:09.753Z,20.5
2023-05-06T13:08:10.291Z,20.5
2023-05-06T13:09:10.845Z,20.5
2023-05-06T13:10:11.814Z,20.5
2023-05-06T13:11:11.941Z,20.7
2023-05-06T13:12:12.663Z,20.7
2023-05-06T13:13:13.205Z,20.7
2023-05-06T13:14:13.718Z,20.7
2023-05-06T13:15:14.471Z,20.7
2023-05-06T13:16:15.172Z,20.7
2023-05-06T13:17:15.743Z,20.7
2023-05-06T13:18:16.186Z,20.7
2023-05-06T13:20:17.204Z,20.7
2023-05-06T13:21:24.003Z,20.7
2023-05-06T13:22:24.504Z,20.7
2023-05-06T13:23:25.237Z,20.7
2023-05-06T13:24:25.768Z,20.7
2023-05-06T13:25:26.480Z,20.7
2023-05-06T13:26:27.048Z,20.7
2023-05-06T13:27:27.597Z,20.7
2023-05-06T13:28:28.149Z,20.7
2023-05-06T13:29:28.865Z,20.7
2023-05-06T13:30:29.349Z,20.7
2023-05-06T13:31:30.046Z,20.5
2023-05-06T13:32:30.415Z,20.5
2023-05-06T13:33:30.925Z,20.5
2023-05-06T13:34:31.461Z,20.5
2023-05-06T13:35:32.002Z,20.5
2023-05-06T13:36:32.686Z,20.5
2023-05-06T13:37:33.411Z,20.5
2023-05-06T13:38:33.983Z,20.5
2023-05-06T13:39:34.480Z,20.5
2023-05-06T13:40:35.027Z,20.5
2023-05-06T13:41:35.592Z,20.5